sensor_id;sensor_type;location;lat;lon;timestamp;temperature;humidity
2010;DHT22;1008;47.404;8.502;2024-01-25T00:02:24;10.30;99.90
2010;DHT22;1008;47.404;8.502;2024-01-25T00:04:52;10.40;99.90
2010;DHT22;1008;47.404;8.502;2024-01-25T00:07:19;10.70;99.90
2010;DHT22;1008;47.404;8.502;2024-01-25T00:09:45;10.40;99.90
2010;DHT22;1008;47.404;8.502;2024-01-25T00:12:12;10.40;99.90
2010;DHT22;1008;47.404;8.502;2024-01-25T00:14:39;10.40;99.90
2010;DHT22;1008;47.404;8.502;2024-01-25T00:17:05;10.50;99.90
2010;DHT22;1008;47.404;8.502;2024-01-25T00:19:33;10.40;99.90
2010;DHT22;1008;47.404;8.502;2024-01-25T00:22:01;10.30;99.90
2010;DHT22;1008;47.404;8.502;2024-01-25T00:24:28;10.30;99.90
2010;DHT22;1008;47.404;8.502;2024-01-25T00:26:55;10.40;99.90
2010;DHT22;1008;47.404;8.502;2024-01-25T00:29:21;10.30;99.90
2010;DHT22;1008;47.404;8.502;2024-01-25T00:31:48;10.30;99.90
2010;DHT22;1008;47.404;8.502;2024-01-25T00:34:15;10.30;99.90
2010;DHT22;1008;47.404;8.502;2024-01-25T00:36:42;10.30;99.90
2010;DHT22;1008;47.404;8.502;2024-01-25T00:39:11;10.20;99.90
2010;DHT22;1008;47.404;8.502;2024-01-25T00:41:38;10.20;99.90
2010;DHT22;1008;47.404;8.502;2024-01-25T00:44:07;10.20;99.90
2010;DHT22;1008;47.404;8.502;2024-01-25T00:46:34;10.30;99.90
2010;DHT22;1008;47.404;8.502;2024-01-25T00:49:01;10.30;99.90
2010;DHT22;1008;47.404;8.502;2024-01-25T00:51:29;10.30;99.90
2010;DHT22;1008;47.404;8.502;2024-01-25T00:53:56;10.20;99.90
2010;DHT22;1008;47.404;8.502;2024-01-25T00:56:25;10.20;99.90
2010;DHT22;1008;47.404;8.502;2024-01-25T00:58:52;10.20;99.90
2010;DHT22;1008;47.404;8.502;2024-01-25T01:01:21;10.30;99.90
2010;DHT22;1008;47.404;8.502;2024-01-25T01:03:49;10.20;99.90
2010;DHT22;1008;47.404;8.502;2024-01-25T01:06:19;10.20;99.90
2010;DHT22;1008;47.404;8.502;2024-01-25T01:08:46;10.30;99.90
2010;DHT22;1008;47.404;8.502;2024-01-25T01:11:13;10.40;99.90
2010;DHT22;1008;47.404;8.502;2024-01-25T01:13:41;10.40;99.90
2010;DHT22;1008;47.404;8.502;2024-01-25T01:16:07;10.40;99.90
2010;DHT22;1008;47.404;8.502;2024-01-25T01:18:34;10.40;99.90
2010;DHT22;1008;47.404;8.502;2024-01-25T01:21:01;10.20;99.90
2010;DHT22;1008;47.404;8.502;2024-01-25T01:23:28;10.20;99.90
2010;DHT22;1008;47.404;8.502;2024-01-25T01:25:54;10.30;99.90
2010;DHT22;1008;47.404;8.502;2024-01-25T01:28:21;10.30;99.90
2010;DHT22;1008;47.404;8.502;2024-01-25T01:30:49;10.30;99.90
2010;DHT22;1008;47.404;8.502;2024-01-25T01:33:16;10.40;99.90
2010;DHT22;1008;47.404;8.502;2024-01-25T01:35:42;10.40;99.90
2010;DHT22;1008;47.404;8.502;2024-01-25T01:38:09;10.40;99.90
2010;DHT22;1008;47.404;8.502;2024-01-25T01:40:37;10.40;99.90
2010;DHT22;1008;47.404;8.502;2024-01-25T01:43:03;10.30;99.90
2010;DHT22;1008;47.404;8.502;2024-01-25T01:45:30;10.30;99.90
2010;DHT22;1008;47.404;8.502;2024-01-25T01:47:59;10.40;99.90
2010;DHT22;1008;47.404;8.502;2024-01-25T01:50:25;10.60;99.90
2010;DHT22;1008;47.404;8.502;2024-01-25T01:52:53;10.50;99.90
2010;DHT22;1008;47.404;8.502;2024-01-25T01:55:21;10.30;99.90
2010;DHT22;1008;47.404;8.502;2024-01-25T01:57:48;10.40;99.90
2010;DHT22;1008;47.404;8.502;2024-01-25T02:00:15;10.40;99.90
2010;DHT22;1008;47.404;8.502;2024-01-25T02:02:43;10.50;99.90
2010;DHT22;1008;47.404;8.502;2024-01-25T02:05:11;10.50;99.90
2010;DHT22;1008;47.404;8.502;2024-01-25T02:07:39;10.60;99.90
2010;DHT22;1008;47.404;8.502;2024-01-25T02:10:07;10.60;99.90
2010;DHT22;1008;47.404;8.502;2024-01-25T02:12:34;10.60;99.90
2010;DHT22;1008;47.404;8.502;2024-01-25T02:15:01;10.70;99.90
2010;DHT22;1008;47.404;8.502;2024-01-25T02:17:27;10.70;99.90
2010;DHT22;1008;47.404;8.502;2024-01-25T02:19:54;10.70;99.90
2010;DHT22;1008;47.404;8.502;2024-01-25T02:22:22;10.70;99.90
2010;DHT22;1008;47.404;8.502;2024-01-25T02:24:49;10.80;99.90
2010;DHT22;1008;47.404;8.502;2024-01-25T02:27:15;11.00;99.90
2010;DHT22;1008;47.404;8.502;2024-01-25T02:29:42;11.00;99.90
2010;DHT22;1008;47.404;8.502;2024-01-25T02:32:09;11.20;99.90
2010;DHT22;1008;47.404;8.502;2024-01-25T02:34:36;10.90;99.90
2010;DHT22;1008;47.404;8.502;2024-01-25T02:37:03;10.80;99.90
2010;DHT22;1008;47.404;8.502;2024-01-25T02:39:32;10.80;99.90
2010;DHT22;1008;47.404;8.502;2024-01-25T02:41:59;10.80;99.90
2010;DHT22;1008;47.404;8.502;2024-01-25T02:44:25;10.80;99.90
2010;DHT22;1008;47.404;8.502;2024-01-25T02:46:52;10.90;99.90
2010;DHT22;1008;47.404;8.502;2024-01-25T02:49:19;10.90;99.90
2010;DHT22;1008;47.404;8.502;2024-01-25T02:51:45;10.90;99.90
2010;DHT22;1008;47.404;8.502;2024-01-25T02:54:11;11.00;99.90
2010;DHT22;1008;47.404;8.502;2024-01-25T02:56:39;10.90;99.90
2010;DHT22;1008;47.404;8.502;2024-01-25T02:59:06;10.80;99.90
2010;DHT22;1008;47.404;8.502;2024-01-25T03:01:38;10.90;99.90
2010;DHT22;1008;47.404;8.502;2024-01-25T03:04:05;11.00;99.90
2010;DHT22;1008;47.404;8.502;2024-01-25T03:06:31;11.00;99.90
2010;DHT22;1008;47.404;8.502;2024-01-25T03:08:58;10.90;99.90
2010;DHT22;1008;47.404;8.502;2024-01-25T03:11:25;10.90;99.90
2010;DHT22;1008;47.404;8.502;2024-01-25T03:13:53;10.80;99.90
2010;DHT22;1008;47.404;8.502;2024-01-25T03:16:19;10.80;99.90
2010;DHT22;1008;47.404;8.502;2024-01-25T03:18:46;10.90;99.90
2010;DHT22;1008;47.404;8.502;2024-01-25T03:21:13;10.80;99.90
2010;DHT22;1008;47.404;8.502;2024-01-25T03:23:39;10.80;99.90
2010;DHT22;1008;47.404;8.502;2024-01-25T03:26:06;10.80;99.90
2010;DHT22;1008;47.404;8.502;2024-01-25T03:28:34;10.80;99.90
2010;DHT22;1008;47.404;8.502;2024-01-25T03:31:02;10.80;99.90
2010;DHT22;1008;47.404;8.502;2024-01-25T03:33:29;10.90;99.90
2010;DHT22;1008;47.404;8.502;2024-01-25T03:36:00;10.80;99.90
2010;DHT22;1008;47.404;8.502;2024-01-25T03:38:27;10.80;99.90
2010;DHT22;1008;47.404;8.502;2024-01-25T03:40:54;10.80;99.90
2010;DHT22;1008;47.404;8.502;2024-01-25T03:43:21;10.90;99.90
2010;DHT22;1008;47.404;8.502;2024-01-25T03:45:48;10.90;99.90
2010;DHT22;1008;47.404;8.502;2024-01-25T03:48:17;11.00;99.90
2010;DHT22;1008;47.404;8.502;2024-01-25T03:50:44;11.00;99.90
2010;DHT22;1008;47.404;8.502;2024-01-25T03:53:09;10.90;99.90
2010;DHT22;1008;47.404;8.502;2024-01-25T03:55:36;11.00;99.90
2010;DHT22;1008;47.404;8.502;2024-01-25T03:58:03;10.90;99.90
2010;DHT22;1008;47.404;8.502;2024-01-25T04:00:30;10.90;99.90
2010;DHT22;1008;47.404;8.502;2024-01-25T04:02:57;11.00;99.90
2010;DHT22;1008;47.404;8.502;2024-01-25T04:05:25;10.90;99.90
2010;DHT22;1008;47.404;8.502;2024-01-25T04:07:52;10.90;99.90
2010;DHT22;1008;47.404;8.502;2024-01-25T04:10:19;10.90;99.90
2010;DHT22;1008;47.404;8.502;2024-01-25T04:12:46;10.90;99.90
2010;DHT22;1008;47.404;8.502;2024-01-25T04:15:12;10.90;99.90
2010;DHT22;1008;47.404;8.502;2024-01-25T04:17:39;10.80;99.90
2010;DHT22;1008;47.404;8.502;2024-01-25T04:20:07;10.90;99.90
2010;DHT22;1008;47.404;8.502;2024-01-25T04:22:35;10.90;99.90
2010;DHT22;1008;47.404;8.502;2024-01-25T04:25:02;11.00;99.90
2010;DHT22;1008;47.404;8.502;2024-01-25T04:27:30;11.00;99.90
2010;DHT22;1008;47.404;8.502;2024-01-25T04:29:56;11.00;99.90
2010;DHT22;1008;47.404;8.502;2024-01-25T04:32:23;10.90;99.90
2010;DHT22;1008;47.404;8.502;2024-01-25T04:34:50;10.80;99.90
2010;DHT22;1008;47.404;8.502;2024-01-25T04:37:16;10.90;99.90
2010;DHT22;1008;47.404;8.502;2024-01-25T04:39:44;10.90;99.90
2010;DHT22;1008;47.404;8.502;2024-01-25T04:42:11;10.90;99.90
2010;DHT22;1008;47.404;8.502;2024-01-25T04:44:38;10.90;99.90
2010;DHT22;1008;47.404;8.502;2024-01-25T04:47:04;11.00;99.90
2010;DHT22;1008;47.404;8.502;2024-01-25T04:49:31;10.90;99.90
2010;DHT22;1008;47.404;8.502;2024-01-25T04:51:58;11.00;99.90
2010;DHT22;1008;47.404;8.502;2024-01-25T04:54:24;10.90;99.90
2010;DHT22;1008;47.404;8.502;2024-01-25T04:56:53;11.10;99.90
2010;DHT22;1008;47.404;8.502;2024-01-25T04:59:20;11.10;99.90
2010;DHT22;1008;47.404;8.502;2024-01-25T05:01:46;11.10;99.90
2010;DHT22;1008;47.404;8.502;2024-01-25T05:04:13;11.10;99.90
2010;DHT22;1008;47.404;8.502;2024-01-25T05:06:40;11.10;99.90
2010;DHT22;1008;47.404;8.502;2024-01-25T05:09:06;11.20;99.90
2010;DHT22;1008;47.404;8.502;2024-01-25T05:11:37;11.20;99.90
2010;DHT22;1008;47.404;8.502;2024-01-25T05:14:05;11.20;99.90
2010;DHT22;1008;47.404;8.502;2024-01-25T05:16:32;11.20;99.90
2010;DHT22;1008;47.404;8.502;2024-01-25T05:18:58;11.30;99.90
2010;DHT22;1008;47.404;8.502;2024-01-25T05:21:25;11.20;99.90
2010;DHT22;1008;47.404;8.502;2024-01-25T05:23:54;11.20;99.90
2010;DHT22;1008;47.404;8.502;2024-01-25T05:26:21;11.30;99.90
2010;DHT22;1008;47.404;8.502;2024-01-25T05:28:48;11.50;99.90
2010;DHT22;1008;47.404;8.502;2024-01-25T05:31:16;11.40;99.90
2010;DHT22;1008;47.404;8.502;2024-01-25T05:33:43;11.30;99.90
2010;DHT22;1008;47.404;8.502;2024-01-25T05:36:09;11.30;99.90
2010;DHT22;1008;47.404;8.502;2024-01-25T05:38:37;11.40;99.90
2010;DHT22;1008;47.404;8.502;2024-01-25T05:41:04;11.30;99.90
2010;DHT22;1008;47.404;8.502;2024-01-25T05:43:30;11.30;99.90
2010;DHT22;1008;47.404;8.502;2024-01-25T05:45:57;11.20;99.90
2010;DHT22;1008;47.404;8.502;2024-01-25T05:48:25;11.20;99.90
2010;DHT22;1008;47.404;8.502;2024-01-25T05:50:52;11.30;99.90
2010;DHT22;1008;47.404;8.502;2024-01-25T05:53:19;11.40;99.90
2010;DHT22;1008;47.404;8.502;2024-01-25T05:55:47;11.40;99.90
2010;DHT22;1008;47.404;8.502;2024-01-25T05:58:13;11.50;99.90
2010;DHT22;1008;47.404;8.502;2024-01-25T06:00:40;11.50;99.90
2010;DHT22;1008;47.404;8.502;2024-01-25T06:03:07;11.30;99.90
2010;DHT22;1008;47.404;8.502;2024-01-25T06:05:34;11.30;99.90
2010;DHT22;1008;47.404;8.502;2024-01-25T06:08:01;11.40;99.90
2010;DHT22;1008;47.404;8.502;2024-01-25T06:10:28;11.30;99.90
2010;DHT22;1008;47.404;8.502;2024-01-25T06:12:54;11.50;99.90
2010;DHT22;1008;47.404;8.502;2024-01-25T06:15:21;11.60;99.90
2010;DHT22;1008;47.404;8.502;2024-01-25T06:17:48;11.70;99.90
2010;DHT22;1008;47.404;8.502;2024-01-25T06:20:15;11.60;99.90
2010;DHT22;1008;47.404;8.502;2024-01-25T06:22:43;11.70;99.90
2010;DHT22;1008;47.404;8.502;2024-01-25T06:25:09;11.70;99.90
2010;DHT22;1008;47.404;8.502;2024-01-25T06:27:36;11.60;99.90
2010;DHT22;1008;47.404;8.502;2024-01-25T06:30:03;11.60;99.90
2010;DHT22;1008;47.404;8.502;2024-01-25T06:32:30;11.50;99.90
2010;DHT22;1008;47.404;8.502;2024-01-25T06:34:57;11.50;99.90
2010;DHT22;1008;47.404;8.502;2024-01-25T06:37:24;11.50;99.90
2010;DHT22;1008;47.404;8.502;2024-01-25T06:39:52;11.40;99.90
2010;DHT22;1008;47.404;8.502;2024-01-25T06:42:18;11.50;99.90
2010;DHT22;1008;47.404;8.502;2024-01-25T06:44:45;11.70;99.90
2010;DHT22;1008;47.404;8.502;2024-01-25T06:47:12;11.60;99.90
2010;DHT22;1008;47.404;8.502;2024-01-25T06:49:39;11.50;99.90
2010;DHT22;1008;47.404;8.502;2024-01-25T06:52:05;11.40;99.90
2010;DHT22;1008;47.404;8.502;2024-01-25T06:54:32;11.20;99.90
2010;DHT22;1008;47.404;8.502;2024-01-25T06:57:00;11.00;99.90
2010;DHT22;1008;47.404;8.502;2024-01-25T06:59:28;11.00;99.90
2010;DHT22;1008;47.404;8.502;2024-01-25T07:01:54;10.90;99.90
2010;DHT22;1008;47.404;8.502;2024-01-25T07:04:21;10.80;99.90
2010;DHT22;1008;47.404;8.502;2024-01-25T07:06:48;10.80;99.90
2010;DHT22;1008;47.404;8.502;2024-01-25T07:09:15;10.80;99.90
2010;DHT22;1008;47.404;8.502;2024-01-25T07:11:41;10.80;99.90
2010;DHT22;1008;47.404;8.502;2024-01-25T07:14:09;10.70;99.90
2010;DHT22;1008;47.404;8.502;2024-01-25T07:16:36;10.70;99.90
2010;DHT22;1008;47.404;8.502;2024-01-25T07:19:03;10.70;99.90
2010;DHT22;1008;47.404;8.502;2024-01-25T07:21:30;11.00;99.90
2010;DHT22;1008;47.404;8.502;2024-01-25T07:23:58;11.10;99.90
2010;DHT22;1008;47.404;8.502;2024-01-25T07:26:25;11.10;99.90
2010;DHT22;1008;47.404;8.502;2024-01-25T07:28:52;11.00;99.90
2010;DHT22;1008;47.404;8.502;2024-01-25T07:31:24;10.90;99.90
2010;DHT22;1008;47.404;8.502;2024-01-25T07:33:51;10.90;99.90
2010;DHT22;1008;47.404;8.502;2024-01-25T07:36:18;10.90;99.90
2010;DHT22;1008;47.404;8.502;2024-01-25T07:38:45;10.90;99.90
2010;DHT22;1008;47.404;8.502;2024-01-25T07:41:12;10.90;99.90
2010;DHT22;1008;47.404;8.502;2024-01-25T07:43:39;10.90;99.90
2010;DHT22;1008;47.404;8.502;2024-01-25T07:46:05;10.90;99.90
2010;DHT22;1008;47.404;8.502;2024-01-25T07:48:34;10.80;99.90
2010;DHT22;1008;47.404;8.502;2024-01-25T07:51:00;10.80;99.90
2010;DHT22;1008;47.404;8.502;2024-01-25T07:53:27;10.80;99.90
2010;DHT22;1008;47.404;8.502;2024-01-25T07:55:54;10.80;99.90
2010;DHT22;1008;47.404;8.502;2024-01-25T07:58:20;10.70;99.90
2010;DHT22;1008;47.404;8.502;2024-01-25T08:00:47;10.80;99.90
2010;DHT22;1008;47.404;8.502;2024-01-25T08:03:14;10.80;99.90
2010;DHT22;1008;47.404;8.502;2024-01-25T08:05:43;10.80;99.90
2010;DHT22;1008;47.404;8.502;2024-01-25T08:08:09;10.90;99.90
2010;DHT22;1008;47.404;8.502;2024-01-25T08:10:37;10.80;99.90
2010;DHT22;1008;47.404;8.502;2024-01-25T08:13:04;10.90;99.90
2010;DHT22;1008;47.404;8.502;2024-01-25T08:15:30;10.90;99.90
2010;DHT22;1008;47.404;8.502;2024-01-25T08:17:57;10.90;99.90
2010;DHT22;1008;47.404;8.502;2024-01-25T08:20:24;11.00;99.90
2010;DHT22;1008;47.404;8.502;2024-01-25T08:22:52;10.90;99.90
2010;DHT22;1008;47.404;8.502;2024-01-25T08:25:18;11.00;99.90
2010;DHT22;1008;47.404;8.502;2024-01-25T08:27:45;11.00;99.90
2010;DHT22;1008;47.404;8.502;2024-01-25T08:30:13;11.00;99.90
2010;DHT22;1008;47.404;8.502;2024-01-25T08:32:39;11.00;99.90
2010;DHT22;1008;47.404;8.502;2024-01-25T08:35:06;11.00;99.90
2010;DHT22;1008;47.404;8.502;2024-01-25T08:37:33;10.90;99.90
2010;DHT22;1008;47.404;8.502;2024-01-25T08:40:03;11.10;99.90
2010;DHT22;1008;47.404;8.502;2024-01-25T08:42:31;11.10;99.90
2010;DHT22;1008;47.404;8.502;2024-01-25T08:44:58;11.10;99.90
2010;DHT22;1008;47.404;8.502;2024-01-25T08:47:24;11.20;99.90
2010;DHT22;1008;47.404;8.502;2024-01-25T08:49:51;11.10;99.90
2010;DHT22;1008;47.404;8.502;2024-01-25T08:52:18;11.10;99.90
2010;DHT22;1008;47.404;8.502;2024-01-25T08:54:45;11.20;99.90
2010;DHT22;1008;47.404;8.502;2024-01-25T08:57:13;11.10;99.90
2010;DHT22;1008;47.404;8.502;2024-01-25T08:59:40;11.30;99.90
2010;DHT22;1008;47.404;8.502;2024-01-25T09:02:07;11.50;99.90
2010;DHT22;1008;47.404;8.502;2024-01-25T09:04:34;11.40;99.90
2010;DHT22;1008;47.404;8.502;2024-01-25T09:07:01;11.30;99.90
2010;DHT22;1008;47.404;8.502;2024-01-25T09:09:27;11.40;99.90
2010;DHT22;1008;47.404;8.502;2024-01-25T09:11:54;11.30;99.90
2010;DHT22;1008;47.404;8.502;2024-01-25T09:14:22;11.40;99.90
2010;DHT22;1008;47.404;8.502;2024-01-25T09:16:49;11.50;99.90
2010;DHT22;1008;47.404;8.502;2024-01-25T09:19:16;11.40;99.90
2010;DHT22;1008;47.404;8.502;2024-01-25T09:21:43;11.40;99.90
2010;DHT22;1008;47.404;8.502;2024-01-25T09:24:09;11.40;99.90
2010;DHT22;1008;47.404;8.502;2024-01-25T09:26:36;11.40;99.90
2010;DHT22;1008;47.404;8.502;2024-01-25T09:29:03;11.40;99.90
2010;DHT22;1008;47.404;8.502;2024-01-25T09:31:31;11.40;99.90
2010;DHT22;1008;47.404;8.502;2024-01-25T09:33:58;11.50;99.90
2010;DHT22;1008;47.404;8.502;2024-01-25T09:36:25;11.30;99.90
2010;DHT22;1008;47.404;8.502;2024-01-25T09:38:52;11.40;99.90
2010;DHT22;1008;47.404;8.502;2024-01-25T09:41:18;11.40;99.90
2010;DHT22;1008;47.404;8.502;2024-01-25T09:43:46;11.40;99.90
2010;DHT22;1008;47.404;8.502;2024-01-25T09:46:13;11.50;99.90
2010;DHT22;1008;47.404;8.502;2024-01-25T09:48:42;11.50;99.90
2010;DHT22;1008;47.404;8.502;2024-01-25T09:51:11;11.50;99.90
2010;DHT22;1008;47.404;8.502;2024-01-25T09:53:39;11.60;99.90
2010;DHT22;1008;47.404;8.502;2024-01-25T09:56:08;11.60;99.90
2010;DHT22;1008;47.404;8.502;2024-01-25T09:58:38;11.60;99.90
2010;DHT22;1008;47.404;8.502;2024-01-25T10:01:08;11.50;99.90
2010;DHT22;1008;47.404;8.502;2024-01-25T10:03:35;11.60;99.90
2010;DHT22;1008;47.404;8.502;2024-01-25T10:06:05;11.60;99.90
2010;DHT22;1008;47.404;8.502;2024-01-25T10:08:32;11.60;99.90
2010;DHT22;1008;47.404;8.502;2024-01-25T10:10:59;11.60;99.90
2010;DHT22;1008;47.404;8.502;2024-01-25T10:13:26;11.70;99.90
2010;DHT22;1008;47.404;8.502;2024-01-25T10:15:53;11.80;99.90
2010;DHT22;1008;47.404;8.502;2024-01-25T10:18:21;11.80;99.90
2010;DHT22;1008;47.404;8.502;2024-01-25T10:20:48;11.90;99.90
2010;DHT22;1008;47.404;8.502;2024-01-25T10:23:16;11.80;99.90
2010;DHT22;1008;47.404;8.502;2024-01-25T10:25:43;11.80;99.90
2010;DHT22;1008;47.404;8.502;2024-01-25T10:28:10;11.80;99.90
2010;DHT22;1008;47.404;8.502;2024-01-25T10:30:38;11.70;99.90
2010;DHT22;1008;47.404;8.502;2024-01-25T10:33:05;11.80;99.90
2010;DHT22;1008;47.404;8.502;2024-01-25T10:35:32;11.80;99.90
2010;DHT22;1008;47.404;8.502;2024-01-25T10:37:59;11.90;99.90
2010;DHT22;1008;47.404;8.502;2024-01-25T10:40:28;11.90;99.90
2010;DHT22;1008;47.404;8.502;2024-01-25T10:42:55;12.30;99.90
2010;DHT22;1008;47.404;8.502;2024-01-25T10:45:22;12.20;99.90
2010;DHT22;1008;47.404;8.502;2024-01-25T10:47:49;12.30;99.90
2010;DHT22;1008;47.404;8.502;2024-01-25T10:50:16;12.20;99.90
2010;DHT22;1008;47.404;8.502;2024-01-25T10:52:44;12.20;99.90
2010;DHT22;1008;47.404;8.502;2024-01-25T10:55:11;12.30;99.90
2010;DHT22;1008;47.404;8.502;2024-01-25T10:57:43;12.30;99.90
2010;DHT22;1008;47.404;8.502;2024-01-25T11:00:11;12.40;99.90
2010;DHT22;1008;47.404;8.502;2024-01-25T11:02:40;12.30;99.90
2010;DHT22;1008;47.404;8.502;2024-01-25T11:05:09;12.40;99.90
2010;DHT22;1008;47.404;8.502;2024-01-25T11:07:43;12.40;99.90
2010;DHT22;1008;47.404;8.502;2024-01-25T11:10:17;12.40;99.90
2010;DHT22;1008;47.404;8.502;2024-01-25T11:12:56;12.40;99.90
2010;DHT22;1008;47.404;8.502;2024-01-25T11:15:29;12.30;99.90
2010;DHT22;1008;47.404;8.502;2024-01-25T11:17:57;12.30;99.90
2010;DHT22;1008;47.404;8.502;2024-01-25T11:20:25;12.40;99.90
2010;DHT22;1008;47.404;8.502;2024-01-25T11:22:56;12.40;99.90
2010;DHT22;1008;47.404;8.502;2024-01-25T11:25:24;12.50;99.90
2010;DHT22;1008;47.404;8.502;2024-01-25T11:27:54;12.50;99.90
2010;DHT22;1008;47.404;8.502;2024-01-25T11:30:21;12.60;99.90
2010;DHT22;1008;47.404;8.502;2024-01-25T11:32:48;12.60;99.90
2010;DHT22;1008;47.404;8.502;2024-01-25T11:35:15;12.60;99.90
2010;DHT22;1008;47.404;8.502;2024-01-25T11:37:43;12.80;99.90
2010;DHT22;1008;47.404;8.502;2024-01-25T11:40:11;12.90;99.90
2010;DHT22;1008;47.404;8.502;2024-01-25T11:42:38;13.00;99.90
2010;DHT22;1008;47.404;8.502;2024-01-25T11:45:08;13.00;99.90
2010;DHT22;1008;47.404;8.502;2024-01-25T11:47:36;13.30;99.90
2010;DHT22;1008;47.404;8.502;2024-01-25T11:50:04;14.10;99.90
2010;DHT22;1008;47.404;8.502;2024-01-25T11:52:31;14.10;99.90
2010;DHT22;1008;47.404;8.502;2024-01-25T11:54:59;14.20;99.90
2010;DHT22;1008;47.404;8.502;2024-01-25T11:57:25;14.00;99.90
2010;DHT22;1008;47.404;8.502;2024-01-25T11:59:53;14.40;99.90
2010;DHT22;1008;47.404;8.502;2024-01-25T12:02:21;14.60;99.90
2010;DHT22;1008;47.404;8.502;2024-01-25T12:04:48;14.90;99.90
2010;DHT22;1008;47.404;8.502;2024-01-25T12:07:15;15.10;99.90
2010;DHT22;1008;47.404;8.502;2024-01-25T12:09:42;15.60;99.90
2010;DHT22;1008;47.404;8.502;2024-01-25T12:12:09;14.90;99.90
2010;DHT22;1008;47.404;8.502;2024-01-25T12:14:37;14.30;99.90
2010;DHT22;1008;47.404;8.502;2024-01-25T12:17:06;14.50;99.90
2010;DHT22;1008;47.404;8.502;2024-01-25T12:19:35;15.00;99.90
2010;DHT22;1008;47.404;8.502;2024-01-25T12:22:02;14.70;99.90
2010;DHT22;1008;47.404;8.502;2024-01-25T12:24:31;14.50;99.90
2010;DHT22;1008;47.404;8.502;2024-01-25T12:26:57;14.60;99.90
2010;DHT22;1008;47.404;8.502;2024-01-25T12:29:25;14.60;99.90
2010;DHT22;1008;47.404;8.502;2024-01-25T12:31:52;14.20;99.90
2010;DHT22;1008;47.404;8.502;2024-01-25T12:34:18;14.00;99.90
2010;DHT22;1008;47.404;8.502;2024-01-25T12:36:46;13.90;99.90
2010;DHT22;1008;47.404;8.502;2024-01-25T12:39:13;13.60;99.90
2010;DHT22;1008;47.404;8.502;2024-01-25T12:41:40;13.90;99.90
2010;DHT22;1008;47.404;8.502;2024-01-25T12:44:07;13.30;99.90
2010;DHT22;1008;47.404;8.502;2024-01-25T12:46:34;13.30;99.90
2010;DHT22;1008;47.404;8.502;2024-01-25T12:49:00;13.20;99.90
2010;DHT22;1008;47.404;8.502;2024-01-25T12:51:29;13.10;99.90
2010;DHT22;1008;47.404;8.502;2024-01-25T12:53:57;13.10;99.90
2010;DHT22;1008;47.404;8.502;2024-01-25T12:56:24;13.20;99.90
2010;DHT22;1008;47.404;8.502;2024-01-25T12:58:51;13.10;99.90
2010;DHT22;1008;47.404;8.502;2024-01-25T13:01:17;13.20;99.90
2010;DHT22;1008;47.404;8.502;2024-01-25T13:03:44;13.20;99.90
2010;DHT22;1008;47.404;8.502;2024-01-25T13:06:12;13.30;99.90
2010;DHT22;1008;47.404;8.502;2024-01-25T13:08:39;13.40;99.90
2010;DHT22;1008;47.404;8.502;2024-01-25T13:11:07;13.70;99.90
2010;DHT22;1008;47.404;8.502;2024-01-25T13:13:33;14.20;99.90
2010;DHT22;1008;47.404;8.502;2024-01-25T13:16:00;14.60;99.90
2010;DHT22;1008;47.404;8.502;2024-01-25T13:18:27;14.80;99.90
2010;DHT22;1008;47.404;8.502;2024-01-25T13:20:53;14.70;99.90
2010;DHT22;1008;47.404;8.502;2024-01-25T13:23:20;14.70;99.90
2010;DHT22;1008;47.404;8.502;2024-01-25T13:25:47;14.20;99.90
2010;DHT22;1008;47.404;8.502;2024-01-25T13:28:15;13.90;99.90
2010;DHT22;1008;47.404;8.502;2024-01-25T13:30:41;13.80;99.90
2010;DHT22;1008;47.404;8.502;2024-01-25T13:33:08;13.50;99.90
2010;DHT22;1008;47.404;8.502;2024-01-25T13:35:35;13.60;99.90
2010;DHT22;1008;47.404;8.502;2024-01-25T13:38:02;13.40;99.90
2010;DHT22;1008;47.404;8.502;2024-01-25T13:40:29;13.20;99.90
2010;DHT22;1008;47.404;8.502;2024-01-25T13:42:56;13.00;99.90
2010;DHT22;1008;47.404;8.502;2024-01-25T13:45:24;12.90;99.90
2010;DHT22;1008;47.404;8.502;2024-01-25T13:47:51;12.90;99.90
2010;DHT22;1008;47.404;8.502;2024-01-25T13:50:17;13.40;99.90
2010;DHT22;1008;47.404;8.502;2024-01-25T13:52:44;13.60;99.90
2010;DHT22;1008;47.404;8.502;2024-01-25T13:55:11;14.20;99.90
2010;DHT22;1008;47.404;8.502;2024-01-25T13:57:37;14.50;99.90
2010;DHT22;1008;47.404;8.502;2024-01-25T14:00:05;14.90;99.90
2010;DHT22;1008;47.404;8.502;2024-01-25T14:02:34;15.10;99.90
2010;DHT22;1008;47.404;8.502;2024-01-25T14:05:01;15.00;99.90
2010;DHT22;1008;47.404;8.502;2024-01-25T14:07:28;15.10;99.90
2010;DHT22;1008;47.404;8.502;2024-01-25T14:09:55;15.00;99.90
2010;DHT22;1008;47.404;8.502;2024-01-25T14:12:21;14.70;99.90
2010;DHT22;1008;47.404;8.502;2024-01-25T14:14:49;14.60;99.90
2010;DHT22;1008;47.404;8.502;2024-01-25T14:17:15;14.60;99.90
2010;DHT22;1008;47.404;8.502;2024-01-25T14:19:44;14.50;99.90
2010;DHT22;1008;47.404;8.502;2024-01-25T14:22:10;14.60;99.90
2010;DHT22;1008;47.404;8.502;2024-01-25T14:24:37;14.60;99.90
2010;DHT22;1008;47.404;8.502;2024-01-25T14:27:04;14.70;99.90
2010;DHT22;1008;47.404;8.502;2024-01-25T14:29:31;14.80;99.90
2010;DHT22;1008;47.404;8.502;2024-01-25T14:31:59;14.70;99.90
2010;DHT22;1008;47.404;8.502;2024-01-25T14:34:25;14.70;99.90
2010;DHT22;1008;47.404;8.502;2024-01-25T14:36:54;14.50;99.90
2010;DHT22;1008;47.404;8.502;2024-01-25T14:39:20;14.40;99.90
2010;DHT22;1008;47.404;8.502;2024-01-25T14:41:47;14.30;99.90
2010;DHT22;1008;47.404;8.502;2024-01-25T14:44:14;13.90;99.90
2010;DHT22;1008;47.404;8.502;2024-01-25T14:46:40;13.80;99.90
2010;DHT22;1008;47.404;8.502;2024-01-25T14:49:07;13.70;99.90
2010;DHT22;1008;47.404;8.502;2024-01-25T14:51:34;13.70;99.90
2010;DHT22;1008;47.404;8.502;2024-01-25T14:54:02;13.70;99.90
2010;DHT22;1008;47.404;8.502;2024-01-25T14:56:29;13.70;99.90
2010;DHT22;1008;47.404;8.502;2024-01-25T14:58:55;13.70;99.90
2010;DHT22;1008;47.404;8.502;2024-01-25T15:01:22;13.70;99.90
2010;DHT22;1008;47.404;8.502;2024-01-25T15:03:54;13.30;99.90
2010;DHT22;1008;47.404;8.502;2024-01-25T15:06:21;13.00;99.90
2010;DHT22;1008;47.404;8.502;2024-01-25T15:08:47;12.90;99.90
2010;DHT22;1008;47.404;8.502;2024-01-25T15:11:15;12.80;99.90
2010;DHT22;1008;47.404;8.502;2024-01-25T15:13:42;12.80;99.90
2010;DHT22;1008;47.404;8.502;2024-01-25T15:16:09;12.80;99.90
2010;DHT22;1008;47.404;8.502;2024-01-25T15:18:35;12.80;99.90
2010;DHT22;1008;47.404;8.502;2024-01-25T15:21:02;12.70;99.90
2010;DHT22;1008;47.404;8.502;2024-01-25T15:23:29;12.60;99.90
2010;DHT22;1008;47.404;8.502;2024-01-25T15:25:56;12.40;99.90
2010;DHT22;1008;47.404;8.502;2024-01-25T15:28:24;12.60;99.90
2010;DHT22;1008;47.404;8.502;2024-01-25T15:30:50;12.70;99.90
2010;DHT22;1008;47.404;8.502;2024-01-25T15:33:17;12.90;99.90
2010;DHT22;1008;47.404;8.502;2024-01-25T15:35:44;12.90;99.90
2010;DHT22;1008;47.404;8.502;2024-01-25T15:38:10;12.90;99.90
2010;DHT22;1008;47.404;8.502;2024-01-25T15:40:40;12.90;99.90
2010;DHT22;1008;47.404;8.502;2024-01-25T15:43:07;12.80;99.90
2010;DHT22;1008;47.404;8.502;2024-01-25T15:45:35;12.70;99.90
2010;DHT22;1008;47.404;8.502;2024-01-25T15:48:02;12.50;99.90
2010;DHT22;1008;47.404;8.502;2024-01-25T15:50:29;12.60;99.90
2010;DHT22;1008;47.404;8.502;2024-01-25T15:52:56;12.80;99.90
2010;DHT22;1008;47.404;8.502;2024-01-25T15:55:23;12.90;99.90
2010;DHT22;1008;47.404;8.502;2024-01-25T15:57:49;12.90;99.90
2010;DHT22;1008;47.404;8.502;2024-01-25T16:00:17;13.00;99.90
2010;DHT22;1008;47.404;8.502;2024-01-25T16:02:45;12.90;99.90